Time;durP1;ratioP1;P1;durP2;ratioP2;P2;SDS_P1;SDS_P2;PMS_P1;PMS_P2;Temp;Humidity;BMP_temperature;BMP_pressure;BME280_temperature;BME280_humidity;BME280_pressure;Samples;Min_cycle;Max_cycle;Signal;HPM_P1;HPM_P2
2024/01/30 00:02:21;;;;;;;3.57;1.90;;;;;;;0.52;95.01;101838.09;4184959;28;20445;-66
2024/01/30 00:04:47;;;;;;;10.33;5.30;;;;;;;0.59;94.93;101842.31;4187395;28;20248;-67
2024/01/30 00:07:14;;;;;;;6.80;3.70;;;;;;;0.47;95.11;101838.22;4180453;28;20350;-68
2024/01/30 00:09:40;;;;;;;11.47;2.43;;;;;;;0.56;94.94;101834.41;4185215;28;21246;-67
2024/01/30 00:12:07;;;;;;;7.47;3.27;;;;;;;0.51;94.68;101827.47;4206014;28;20617;-68
2024/01/30 00:14:33;;;;;;;4.63;3.37;;;;;;;0.53;94.92;101825.66;4191803;28;20232;-66
2024/01/30 00:17:00;;;;;;;4.53;3.37;;;;;;;0.50;95.15;101831.91;4191334;28;20341;-67
2024/01/30 00:19:27;;;;;;;14.57;4.73;;;;;;;0.53;94.64;101828.31;4185645;28;20349;-67
2024/01/30 00:21:54;;;;;;;4.63;1.53;;;;;;;0.51;94.72;101832.81;4186611;28;20306;-67
2024/01/30 00:24:20;;;;;;;3.07;2.07;;;;;;;0.46;95.01;101827.63;4201607;28;20410;-66
2024/01/30 00:26:47;;;;;;;21.67;4.00;;;;;;;0.58;94.53;101831.69;4179618;28;21084;-67
2024/01/30 00:29:19;;;;;;;1.87;1.70;;;;;;;0.51;94.70;101828.34;4188268;28;22983;-68
2024/01/30 00:31:46;;;;;;;9.30;2.97;;;;;;;0.43;94.90;101833.94;4195275;28;22157;-67
2024/01/30 00:34:12;;;;;;;5.93;2.63;;;;;;;0.61;94.54;101839.56;4177790;28;20433;-66
2024/01/30 00:36:39;;;;;;;3.33;2.33;;;;;;;0.57;94.33;101837.94;4194197;28;22077;-67
2024/01/30 00:39:08;;;;;;;1.33;0.70;;;;;;;0.57;94.54;101829.94;4189296;28;20407;-67
2024/01/30 00:41:35;;;;;;;7.00;3.17;;;;;;;0.62;94.04;101834.22;4190540;28;20300;-67
2024/01/30 00:44:01;;;;;;;1.80;0.97;;;;;;;0.54;94.01;101830.03;4180159;28;20457;-66
2024/01/30 00:46:28;;;;;;;7.07;3.40;;;;;;;0.52;94.22;101838.09;4192625;28;22194;-67
2024/01/30 00:48:54;;;;;;;1.67;1.47;;;;;;;0.43;94.44;101836.59;4190032;28;20239;-67
2024/01/30 00:51:21;;;;;;;2.80;2.57;;;;;;;0.43;94.57;101833.03;4189029;28;20240;-66
2024/01/30 00:53:48;;;;;;;2.17;1.90;;;;;;;0.54;94.47;101838.91;4192613;28;23190;-67
2024/01/30 00:56:18;;;;;;;5.40;2.50;;;;;;;0.52;94.20;101831.91;4186673;28;20271;-66
2024/01/30 00:58:44;;;;;;;8.73;2.67;;;;;;;0.49;94.31;101835.53;4195777;28;21146;-66
2024/01/30 01:01:11;;;;;;;1.77;1.67;;;;;;;0.46;94.66;101824.97;4182911;28;20248;-67
2024/01/30 01:03:37;;;;;;;0.40;0.40;;;;;;;0.53;94.10;101830.97;4192390;28;20236;-66
2024/01/30 01:06:04;;;;;;;22.87;8.63;;;;;;;0.46;94.32;101832.94;4180679;28;20253;-65
2024/01/30 01:08:31;;;;;;;1.10;0.77;;;;;;;0.54;93.78;101824.69;4188471;28;20229;-64
2024/01/30 01:10:57;;;;;;;3.57;1.97;;;;;;;0.47;93.97;101832.03;4183078;28;20248;-67
2024/01/30 01:13:24;;;;;;;1.43;1.33;;;;;;;0.41;94.47;101834.91;4182506;28;25075;-67
2024/01/30 01:15:50;;;;;;;0.10;0.10;;;;;;;0.42;94.32;101834.84;4202934;28;20236;-66
2024/01/30 01:18:17;;;;;;;2.27;1.90;;;;;;;0.44;94.18;101832.13;4189696;28;20237;-65
2024/01/30 01:20:43;;;;;;;6.63;2.77;;;;;;;0.49;94.46;101829.31;4186291;28;20573;-66
2024/01/30 01:23:11;;;;;;;9.23;2.60;;;;;;;0.54;93.77;101817.59;4188459;28;20616;-66
2024/01/30 01:25:37;;;;;;;3.23;1.60;;;;;;;0.54;93.77;101824.69;4189131;28;20235;-65
2024/01/30 01:28:04;;;;;;;0.60;0.57;;;;;;;0.57;93.68;101825.47;4197596;28;21964;-66
2024/01/30 01:30:31;;;;;;;6.80;4.07;;;;;;;0.58;93.48;101819.22;4186841;28;22065;-67
2024/01/30 01:33:00;;;;;;;1.50;1.40;;;;;;;0.55;93.34;101811.34;4185997;28;20261;-66
2024/01/30 01:35:28;;;;;;;2.73;2.23;;;;;;;0.44;93.50;101814.38;4187394;28;21877;-65
2024/01/30 01:37:54;;;;;;;17.83;2.77;;;;;;;0.47;93.83;101808.91;4184977;28;20237;-66
2024/01/30 01:40:25;;;;;;;2.43;2.23;;;;;;;0.43;93.89;101812.63;4189826;28;20630;-66
2024/01/30 01:42:52;;;;;;;7.03;3.30;;;;;;;0.50;93.86;101809.75;4195778;28;20423;-66
2024/01/30 01:45:20;;;;;;;3.80;2.63;;;;;;;0.45;94.01;101800.09;4187450;28;21693;-65
2024/01/30 01:47:51;;;;;;;3.03;1.47;;;;;;;0.43;93.82;101798.41;4190924;28;21788;-67
2024/01/30 01:50:20;;;;;;;1.77;1.23;;;;;;;0.43;94.02;101799.28;4186974;28;20242;-67
2024/01/30 01:52:50;;;;;;;2.63;2.00;;;;;;;0.44;93.95;101786.81;4180718;28;20235;-65
2024/01/30 01:55:21;;;;;;;7.87;3.37;;;;;;;0.40;94.17;101788.72;4184689;28;21579;-65
2024/01/30 01:57:49;;;;;;;4.27;2.67;;;;;;;0.40;93.97;101793.19;4186622;28;22397;-65
2024/01/30 02:00:16;;;;;;;0.63;0.63;;;;;;;0.34;94.33;101793.38;4188139;28;21996;-66
2024/01/30 02:02:45;;;;;;;13.77;3.10;;;;;;;0.31;94.29;101781.91;4184949;28;25377;-66
2024/01/30 02:05:12;;;;;;;3.87;2.47;;;;;;;0.31;94.33;101781.91;4196495;28;20504;-64
2024/01/30 02:07:38;;;;;;;2.30;1.00;;;;;;;0.26;94.45;101780.28;4191778;28;21291;-65
2024/01/30 02:10:07;;;;;;;11.17;5.50;;;;;;;0.33;94.56;101787.16;4189886;28;22305;-65
2024/01/30 02:12:34;;;;;;;2.73;2.10;;;;;;;0.28;94.44;101776.66;4194168;28;20241;-65
2024/01/30 02:15:01;;;;;;;24.43;4.27;;;;;;;0.25;94.73;101774.09;4195271;28;20229;-67
2024/01/30 02:17:27;;;;;;;12.63;4.97;;;;;;;0.22;94.54;101766.19;4190782;28;20237;-65
2024/01/30 02:19:54;;;;;;;3.43;1.90;;;;;;;0.24;94.86;101766.13;4186710;28;21100;-65
2024/01/30 02:22:22;;;;;;;9.73;3.33;;;;;;;0.15;95.13;101773.50;4201679;28;20233;-65
2024/01/30 02:24:48;;;;;;;5.03;2.77;;;;;;;0.19;94.94;101768.09;4186890;28;20375;-66
2024/01/30 02:27:15;;;;;;;7.27;4.10;;;;;;;0.18;94.50;101766.34;4188670;28;22924;-66
2024/01/30 02:29:42;;;;;;;13.50;3.83;;;;;;;0.25;94.44;101775.88;4202593;28;20288;-64
2024/01/30 02:32:08;;;;;;;10.33;4.27;;;;;;;0.25;94.23;101779.44;4184439;28;22052;-66
2024/01/30 02:34:35;;;;;;;5.77;2.53;;;;;;;0.27;94.50;101771.38;4183691;28;20287;-65
2024/01/30 02:37:01;;;;;;;11.53;3.63;;;;;;;0.27;94.57;101782.03;4182775;28;20251;-65
2024/01/30 02:39:28;;;;;;;9.07;3.53;;;;;;;0.23;94.41;101775.94;4183165;28;20259;-66
2024/01/30 02:41:54;;;;;;;26.80;6.93;;;;;;;0.26;94.26;101772.31;4188466;28;24016;-66
2024/01/30 02:44:21;;;;;;;16.73;5.30;;;;;;;0.22;94.35;101782.19;4184227;28;20828;-65
2024/01/30 02:46:47;;;;;;;3.57;3.33;;;;;;;0.24;94.53;101779.47;4196792;28;20233;-66
2024/01/30 02:49:14;;;;;;;1.80;1.20;;;;;;;0.27;94.08;101788.22;4183108;28;20241;-66
2024/01/30 02:51:41;;;;;;;10.00;3.33;;;;;;;0.20;94.41;101788.47;4189542;28;20430;-66
2024/01/30 02:54:07;;;;;;;4.10;2.73;;;;;;;0.32;93.68;101785.41;4184057;28;20241;-66
2024/01/30 02:56:34;;;;;;;0.63;0.50;;;;;;;0.28;93.44;101787.31;4184851;28;20233;-67
2024/01/30 02:59:01;;;;;;;11.80;3.13;;;;;;;0.25;93.81;101782.09;4187841;28;20234;-65
2024/01/30 03:01:27;;;;;;;13.83;6.63;;;;;;;0.29;93.88;101780.22;4183957;28;23095;-67
2024/01/30 03:03:54;;;;;;;4.83;1.57;;;;;;;0.29;93.23;101783.72;4189807;28;23831;-66
2024/01/30 03:06:22;;;;;;;27.87;4.97;;;;;;;0.23;93.46;101775.94;4191232;28;20232;-66
2024/01/30 03:08:49;;;;;;;5.10;3.10;;;;;;;0.31;93.38;101778.34;4185172;28;21321;-66
2024/01/30 03:11:15;;;;;;;11.33;3.97;;;;;;;0.30;93.20;101779.28;4188608;28;20259;-65
2024/01/30 03:13:42;;;;;;;7.00;3.67;;;;;;;0.24;93.26;101769.69;4183433;28;20328;-65
2024/01/30 03:16:08;;;;;;;5.23;3.40;;;;;;;0.34;93.20;101777.41;4190815;28;21690;-66
2024/01/30 03:18:36;;;;;;;18.00;6.73;;;;;;;0.22;93.41;101784.84;4188984;28;20229;-66
2024/01/30 03:21:03;;;;;;;14.63;3.00;;;;;;;0.27;93.16;101780.22;4182813;28;20717;-65
2024/01/30 03:23:31;;;;;;;3.87;0.93;;;;;;;0.30;93.02;101780.16;4206978;28;21339;-64
2024/01/30 03:25:58;;;;;;;23.60;4.63;;;;;;;0.26;93.14;101777.63;4198614;28;21736;-66
2024/01/30 03:28:24;;;;;;;1.90;1.37;;;;;;;0.14;93.63;101777.09;4186975;28;20228;-66
2024/01/30 03:30:51;;;;;;;5.73;0.67;;;;;;;0.22;93.38;101779.50;4183284;28;20246;-66
2024/01/30 03:33:17;;;;;;;5.87;2.63;;;;;;;0.23;93.14;101777.72;4185770;28;25363;-66
2024/01/30 03:35:44;;;;;;;7.67;4.93;;;;;;;0.13;93.43;101775.34;4190695;28;20233;-65
2024/01/30 03:38:11;;;;;;;1.63;0.87;;;;;;;0.19;93.38;101768.94;4189696;28;21630;-66
2024/01/30 03:40:38;;;;;;;11.70;4.73;;;;;;;0.16;93.30;101771.72;4187202;28;20458;-65
2024/01/30 03:43:05;;;;;;;7.40;2.90;;;;;;;0.15;93.06;101768.16;4187640;28;20294;-66
2024/01/30 03:45:32;;;;;;;6.50;3.10;;;;;;;0.21;92.75;101767.13;4188571;28;20243;-65
2024/01/30 03:47:58;;;;;;;4.90;3.20;;;;;;;0.14;93.27;101765.56;4186256;28;20243;-66
2024/01/30 03:50:25;;;;;;;1.13;1.13;;;;;;;0.08;93.44;101766.63;4196022;28;20257;-65
2024/01/30 03:52:51;;;;;;;6.73;2.50;;;;;;;0.11;93.41;101761.22;4189005;28;20339;-66
2024/01/30 03:55:18;;;;;;;1.60;1.47;;;;;;;0.00;93.35;101768.66;4189836;28;21485;-65
2024/01/30 03:57:45;;;;;;;6.37;2.47;;;;;;;0.03;93.01;101770.38;4185101;28;20335;-65
2024/01/30 04:00:12;;;;;;;2.50;0.83;;;;;;;0.04;93.24;101764.97;4188295;28;21910;-65
2024/01/30 04:02:38;;;;;;;3.37;2.10;;;;;;;0.04;93.09;101758.78;4180454;28;20291;-67
2024/01/30 04:05:05;;;;;;;11.97;2.37;;;;;;;0.08;93.02;101761.28;4185115;28;20825;-66
2024/01/30 04:07:32;;;;;;;2.50;2.30;;;;;;;-0.03;93.35;101756.28;4194551;28;21740;-65
2024/01/30 04:09:58;;;;;;;3.10;1.60;;;;;;;-0.05;93.68;101757.25;4185772;28;20233;-67
2024/01/30 04:12:25;;;;;;;0.77;0.77;;;;;;;-0.07;93.55;101767.97;4201444;28;21129;-65
2024/01/30 04:14:51;;;;;;;1.93;1.80;;;;;;;-0.04;93.74;101759.88;4187048;28;21072;-67
2024/01/30 04:17:18;;;;;;;2.10;1.60;;;;;;;-0.03;93.31;101761.63;4185185;28;20232;-65
2024/01/30 04:19:44;;;;;;;0.50;0.50;;;;;;;-0.04;93.43;101759.00;4183083;28;20232;-67
2024/01/30 04:22:11;;;;;;;6.50;2.43;;;;;;;-0.15;93.96;101769.97;4191426;28;20307;-65
2024/01/30 04:24:37;;;;;;;3.27;2.80;;;;;;;-0.12;93.88;101771.69;4186458;28;20236;-65
2024/01/30 04:27:04;;;;;;;1.40;1.10;;;;;;;-0.14;93.71;101765.50;4185828;28;20240;-65
2024/01/30 04:29:32;;;;;;;8.33;2.80;;;;;;;-0.01;93.00;101767.78;4201225;28;20232;-66
2024/01/30 04:31:58;;;;;;;11.37;2.90;;;;;;;-0.11;93.21;101768.97;4185682;28;21747;-67
2024/01/30 04:34:25;;;;;;;2.43;1.40;;;;;;;-0.10;93.25;101765.38;4183855;28;21760;-66
2024/01/30 04:36:51;;;;;;;2.07;1.40;;;;;;;-0.20;93.53;101770.13;4190361;28;22911;-66
2024/01/30 04:39:18;;;;;;;2.43;1.80;;;;;;;-0.09;93.36;101764.47;4180793;28;21394;-64
2024/01/30 04:41:44;;;;;;;5.83;2.60;;;;;;;-0.20;93.94;101763.94;4186739;28;21591;-67
2024/01/30 04:44:11;;;;;;;1.67;0.90;;;;;;;-0.13;93.47;101767.25;4194550;28;21872;-64
2024/01/30 04:46:38;;;;;;;6.67;2.43;;;;;;;-0.12;92.90;101755.72;4191227;28;20642;-65
2024/01/30 04:49:04;;;;;;;5.03;1.47;;;;;;;-0.18;93.23;101760.31;4186396;28;23540;-65
2024/01/30 04:51:31;;;;;;;0.67;0.53;;;;;;;-0.08;93.38;101755.56;4187966;28;20293;-66
2024/01/30 04:53:58;;;;;;;8.87;2.37;;;;;;;-0.05;92.82;101758.16;4189875;28;24094;-66
2024/01/30 04:56:24;;;;;;;0.30;0.30;;;;;;;-0.03;92.67;101760.75;4187237;28;20294;-65
2024/01/30 04:58:51;;;;;;;0.53;0.53;;;;;;;-0.06;92.56;101755.50;4189060;28;20629;-65
2024/01/30 05:01:17;;;;;;;5.53;2.87;;;;;;;-0.05;92.45;101749.28;4194948;28;20263;-65
2024/01/30 05:03:44;;;;;;;0.23;0.23;;;;;;;-0.03;92.60;101758.09;4189428;28;20241;-66
2024/01/30 05:06:11;;;;;;;2.83;1.50;;;;;;;0.02;91.84;101758.81;4191692;28;20241;-67
2024/01/30 05:08:38;;;;;;;1.47;1.37;;;;;;;0.03;91.90;101757.91;4187491;28;20353;-66
2024/01/30 05:11:05;;;;;;;0.20;0.20;;;;;;;0.02;91.73;101750.84;4187659;28;20241;-65
2024/01/30 05:13:32;;;;;;;0.50;0.50;;;;;;;-0.01;91.49;101759.78;4188799;28;21739;-66
2024/01/30 05:16:03;;;;;;;6.07;2.10;;;;;;;0.07;91.60;101748.91;4189238;28;20221;-66
2024/01/30 05:18:29;;;;;;;3.13;2.20;;;;;;;-0.01;91.74;101757.13;4185901;28;21655;-65
2024/01/30 05:20:56;;;;;;;0.80;0.40;;;;;;;-0.04;91.49;101759.88;4201453;28;20564;-65
2024/01/30 05:23:23;;;;;;;3.97;1.57;;;;;;;-0.17;92.54;101755.84;4187345;28;21795;-65
2024/01/30 05:25:49;;;;;;;8.20;3.13;;;;;;;-0.04;91.87;101757.22;4199670;28;21413;-66
2024/01/30 05:28:16;;;;;;;0.20;0.20;;;;;;;0.07;91.55;101753.34;4191132;28;20229;-65
2024/01/30 05:30:42;;;;;;;3.40;1.03;;;;;;;0.03;91.50;101754.38;4195788;28;20233;-66
2024/01/30 05:33:09;;;;;;;0.77;0.77;;;;;;;0.09;91.46;101754.19;4181821;28;20832;-68
2024/01/30 05:35:36;;;;;;;2.20;2.10;;;;;;;0.06;91.09;101749.84;4192771;28;20236;-65
2024/01/30 05:38:03;;;;;;;9.73;3.90;;;;;;;-0.01;91.23;101754.47;4188498;28;20445;-66
2024/01/30 05:40:30;;;;;;;0.83;0.83;;;;;;;0.10;90.79;101761.25;4189340;28;20268;-65
2024/01/30 05:43:00;;;;;;;1.60;0.83;;;;;;;0.01;91.33;101762.41;4185195;28;20319;-67
2024/01/30 05:45:27;;;;;;;0.27;0.27;;;;;;;0.04;91.19;101764.13;4185078;28;20297;-66
2024/01/30 05:47:54;;;;;;;2.60;0.53;;;;;;;0.08;90.72;101757.78;4189209;28;20309;-65
2024/01/30 05:50:23;;;;;;;1.83;1.70;;;;;;;0.14;90.53;101755.81;4205681;28;20687;-66
2024/01/30 05:52:49;;;;;;;1.63;1.43;;;;;;;0.09;90.57;101751.53;4194687;28;21153;-67
2024/01/30 05:55:16;;;;;;;2.90;1.90;;;;;;;0.03;90.44;101752.59;4185379;28;22859;-67
2024/01/30 05:57:42;;;;;;;1.33;1.20;;;;;;;0.11;90.11;101753.22;4187403;28;20308;-66
2024/01/30 06:00:09;;;;;;;5.87;1.97;;;;;;;0.08;90.62;101758.63;4203170;28;20898;-67
2024/01/30 06:02:36;;;;;;;3.17;1.50;;;;;;;0.08;90.56;101747.97;4186737;28;20230;-65
2024/01/30 06:05:03;;;;;;;9.53;1.50;;;;;;;0.13;90.27;101754.06;4194833;28;20648;-67
2024/01/30 06:07:30;;;;;;;0.40;0.40;;;;;;;0.03;90.49;101757.91;4202646;28;20953;-65
2024/01/30 06:10:02;;;;;;;0.13;0.13;;;;;;;-0.04;90.86;101757.22;4179845;28;20625;-66
2024/01/30 06:12:29;;;;;;;5.20;1.83;;;;;;;-0.05;90.94;101752.84;4208555;28;20329;-65
2024/01/30 06:14:57;;;;;;;9.60;7.53;;;;;;;-0.04;90.75;101746.56;4208694;28;20348;-65
2024/01/30 06:17:24;;;;;;;4.43;0.93;;;;;;;-0.13;91.06;101740.66;4195996;28;20984;-66
2024/01/30 06:19:50;;;;;;;0.30;0.30;;;;;;;-0.10;91.12;101743.22;4188206;28;21237;-65
2024/01/30 06:22:17;;;;;;;1.40;1.30;;;;;;;-0.19;91.38;101753.22;4208071;28;20772;-65
2024/01/30 06:24:44;;;;;;;0.63;0.63;;;;;;;-0.27;91.84;101755.25;4209582;28;20503;-67
2024/01/30 06:27:11;;;;;;;1.77;1.53;;;;;;;-0.19;91.38;101755.91;4190797;28;20232;-66
2024/01/30 06:29:38;;;;;;;1.00;0.90;;;;;;;-0.25;91.85;101755.19;4210968;28;20233;-66
2024/01/30 06:32:05;;;;;;;2.00;1.80;;;;;;;-0.19;91.87;101758.56;4196433;28;20320;-64
2024/01/30 06:34:32;;;;;;;4.57;2.97;;;;;;;-0.13;91.43;101761.94;4191733;28;20232;-67
2024/01/30 06:36:59;;;;;;;0.90;0.57;;;;;;;-0.08;91.18;101757.38;4198316;28;20233;-65
2024/01/30 06:39:26;;;;;;;1.50;0.53;;;;;;;-0.16;90.96;101760.25;4196853;28;20415;-67
2024/01/30 06:41:53;;;;;;;0.10;0.10;;;;;;;-0.13;91.37;101764.59;4192816;28;21819;-66
2024/01/30 06:44:19;;;;;;;1.43;1.33;;;;;;;-0.20;91.36;101762.13;4196465;28;20238;-66
2024/01/30 06:46:46;;;;;;;0.77;0.77;;;;;;;-0.04;91.11;101759.88;4198091;28;21205;-67
2024/01/30 06:49:12;;;;;;;2.07;1.07;;;;;;;-0.09;90.74;101760.94;4200966;28;20248;-66
2024/01/30 06:51:39;;;;;;;2.90;1.27;;;;;;;-0.06;90.99;101767.06;4173363;28;21883;-68
2024/01/30 06:54:05;;;;;;;4.30;1.80;;;;;;;0.05;90.55;101766.72;4192478;28;20714;-68
2024/01/30 06:56:32;;;;;;;7.10;5.07;;;;;;;0.08;90.44;101763.94;4195067;28;21178;-68
2024/01/30 06:58:59;;;;;;;9.83;2.57;;;;;;;0.20;89.55;101760.03;4204222;28;20224;-69
2024/01/30 07:01:29;;;;;;;6.73;1.83;;;;;;;0.18;89.07;101764.56;4192094;28;21378;-70
2024/01/30 07:03:57;;;;;;;0.27;0.27;;;;;;;0.23;88.84;101762.63;4198726;28;20354;-68
2024/01/30 07:06:24;;;;;;;0.30;0.23;;;;;;;0.37;88.64;101770.19;4191880;28;20737;-71
2024/01/30 07:08:51;;;;;;;14.43;3.27;;;;;;;0.38;87.70;101752.41;4189504;28;20295;-68
2024/01/30 07:11:22;;;;;;;0.90;0.90;;;;;;;0.41;87.90;101763.81;4197826;28;20228;-68
2024/01/30 07:13:50;;;;;;;2.13;1.50;;;;;;;0.38;87.77;101765.72;4201228;28;21077;-67
2024/01/30 07:16:17;;;;;;;2.43;2.13;;;;;;;0.55;86.96;101765.16;4205822;28;20224;-67
2024/01/30 07:18:44;;;;;;;0.93;0.93;;;;;;;0.56;86.57;101759.81;4197018;28;20263;-66
2024/01/30 07:21:11;;;;;;;1.30;0.80;;;;;;;0.61;86.03;101759.63;4193171;28;20238;-67
2024/01/30 07:23:41;;;;;;;0.17;0.17;;;;;;;0.63;86.51;101763.13;4186024;28;20232;-68
2024/01/30 07:26:09;;;;;;;0.30;0.30;;;;;;;0.69;85.94;101768.25;4197905;28;22908;-67
2024/01/30 07:28:36;;;;;;;5.97;3.33;;;;;;;0.76;85.88;101767.13;4188271;28;20311;-68
2024/01/30 07:31:03;;;;;;;0.10;0.10;;;;;;;0.93;85.17;101773.69;4188721;28;20303;-69
2024/01/30 07:33:30;;;;;;;5.20;2.33;;;;;;;1.08;84.02;101767.81;4188017;28;20343;-68
2024/01/30 07:35:56;;;;;;;10.20;0.93;;;;;;;1.06;83.79;101769.66;4188353;28;21118;-68
2024/01/30 07:38:24;;;;;;;2.27;0.47;;;;;;;1.19;83.62;101763.91;4185119;28;20557;-66
2024/01/30 07:40:50;;;;;;;0.40;0.40;;;;;;;1.15;83.52;101764.94;4184654;28;21456;-66
2024/01/30 07:43:17;;;;;;;2.83;2.00;;;;;;;1.34;82.27;101766.03;4185949;28;21762;-70
2024/01/30 07:45:44;;;;;;;1.00;0.97;;;;;;;1.29;82.00;101764.47;4191392;28;22158;-68
2024/01/30 07:48:11;;;;;;;1.17;1.07;;;;;;;1.41;81.95;101764.00;4186990;28;27445;-69
2024/01/30 07:50:38;;;;;;;1.80;1.33;;;;;;;1.43;82.02;101764.84;4211572;28;20453;-67
2024/01/30 07:53:04;;;;;;;1.37;0.93;;;;;;;1.61;81.28;101768.63;4203200;28;20294;-70
2024/01/30 07:55:32;;;;;;;1.00;0.97;;;;;;;1.69;80.85;101766.53;4185579;28;20232;-67
2024/01/30 07:58:00;;;;;;;0.10;0.10;;;;;;;1.71;80.67;101763.81;4239279;28;23521;-68
2024/01/30 08:00:27;;;;;;;0.30;0.30;;;;;;;1.76;80.82;101766.31;4182823;28;20228;-69
2024/01/30 08:02:55;;;;;;;0.43;0.43;;;;;;;1.93;79.89;101769.22;4189480;28;20378;-67
2024/01/30 08:05:22;;;;;;;2.43;0.97;;;;;;;1.89;79.56;101763.13;4197896;28;20236;-68
2024/01/30 08:07:50;;;;;;;0.40;0.40;;;;;;;1.99;79.33;101765.44;4230820;28;20236;-68
2024/01/30 08:10:18;;;;;;;0.83;0.63;;;;;;;2.11;79.29;101764.09;4222320;28;20233;-70
2024/01/30 08:12:45;;;;;;;0.47;0.43;;;;;;;2.14;78.66;101761.28;4194827;28;21929;-68
2024/01/30 08:15:13;;;;;;;8.00;1.53;;;;;;;2.30;77.89;101766.91;4189747;28;20304;-68
2024/01/30 08:17:40;;;;;;;10.60;4.30;;;;;;;2.18;78.16;101754.91;4186919;28;20236;-68
2024/01/30 08:20:08;;;;;;;6.93;4.33;;;;;;;2.31;78.07;101756.16;4212771;28;20238;-67
2024/01/30 08:22:35;;;;;;;3.90;1.43;;;;;;;2.32;78.02;101760.56;4188449;28;21657;-69
2024/01/30 08:25:02;;;;;;;0.50;0.50;;;;;;;2.45;77.58;101755.63;4205497;28;20613;-67
2024/01/30 08:27:29;;;;;;;1.13;0.77;;;;;;;2.64;76.84;101753.06;4221171;28;20309;-67
2024/01/30 08:29:56;;;;;;;3.23;2.93;;;;;;;2.69;76.45;101745.72;4233844;28;20243;-67
2024/01/30 08:32:23;;;;;;;2.27;1.60;;;;;;;2.66;76.55;101751.16;4203558;28;20274;-68
2024/01/30 08:34:50;;;;;;;5.27;1.90;;;;;;;2.64;76.44;101747.72;4183621;28;20432;-68
2024/01/30 08:37:17;;;;;;;2.13;1.53;;;;;;;2.88;75.66;101741.38;4211424;28;21025;-68
2024/01/30 08:39:44;;;;;;;0.10;0.10;;;;;;;3.11;74.98;101751.97;4214982;28;20238;-70
2024/01/30 08:42:11;;;;;;;0.10;0.10;;;;;;;3.91;72.61;101746.59;4218999;28;20345;-70
2024/01/30 08:44:38;;;;;;;0.10;0.10;;;;;;;5.31;68.42;101740.59;4204518;28;20237;-67
2024/01/30 08:47:05;;;;;;;0.53;0.53;;;;;;;8.20;58.93;101753.34;4210899;28;20233;-70
2024/01/30 08:49:32;;;;;;;2.53;0.50;;;;;;;11.89;48.63;101748.53;4223080;28;20233;-69
2024/01/30 08:51:59;;;;;;;0.00;0.00;;;;;;;14.22;41.50;101751.47;4198367;28;22704;-69
2024/01/30 08:54:26;;;;;;;0.00;0.00;;;;;;;15.73;37.11;101757.50;4205709;28;21792;-70
2024/01/30 08:56:53;;;;;;;0.60;0.60;;;;;;;16.24;35.14;101758.88;4205767;28;21201;-70
2024/01/30 08:59:19;;;;;;;0.83;0.47;;;;;;;17.15;33.82;101756.22;4277373;28;20224;-69
2024/01/30 09:01:47;;;;;;;0.20;0.20;;;;;;;18.21;31.42;101757.91;4220061;28;25868;-68
2024/01/30 09:04:29;;;;;;;0.17;0.17;;;;;;;18.52;30.36;101755.44;4234316;28;23849;-68
2024/01/30 09:06:56;;;;;;;4.43;3.60;;;;;;;20.11;28.87;101761.53;4220319;28;20229;-67
2024/01/30 09:09:22;;;;;;;0.97;0.97;;;;;;;19.28;28.72;101758.13;4204799;28;20236;-69
2024/01/30 09:11:49;;;;;;;0.67;0.63;;;;;;;19.68;28.04;101755.47;4203282;28;20967;-69
2024/01/30 09:14:16;;;;;;;1.60;1.50;;;;;;;18.79;28.53;101755.31;4222757;28;25028;-68
2024/01/30 09:16:42;;;;;;;7.93;2.70;;;;;;;19.22;28.05;101755.19;4205505;28;22013;-69
2024/01/30 09:19:09;;;;;;;0.30;0.30;;;;;;;18.14;29.10;101752.22;4202219;28;20233;-68
2024/01/30 09:21:36;;;;;;;1.03;0.40;;;;;;;18.03;29.37;101753.38;4197282;28;20298;-70
2024/01/30 09:24:06;;;;;;;0.20;0.20;;;;;;;18.25;29.14;101745.59;4191003;28;20233;-69
2024/01/30 09:26:32;;;;;;;0.33;0.33;;;;;;;18.28;28.97;101755.38;4228771;28;20273;-68
2024/01/30 09:28:59;;;;;;;0.83;0.83;;;;;;;19.04;27.74;101744.38;4203689;28;20327;-68
2024/01/30 09:31:25;;;;;;;12.50;1.47;;;;;;;18.73;27.97;101734.03;4191443;28;20241;-69
2024/01/30 09:33:53;;;;;;;0.00;0.00;;;;;;;18.93;27.94;101743.69;4194516;28;20367;-69
2024/01/30 09:36:20;;;;;;;2.33;1.37;;;;;;;18.95;27.59;101746.28;4196366;28;20466;-69
2024/01/30 09:38:47;;;;;;;0.00;0.00;;;;;;;18.78;28.27;101737.13;4212503;28;21141;-72
2024/01/30 09:41:15;;;;;;;0.00;0.00;;;;;;;18.32;28.72;101740.31;4198792;28;21435;-70
2024/01/30 09:43:48;;;;;;;0.33;0.33;;;;;;;16.97;29.85;101727.00;4190889;28;20849;-68
2024/01/30 09:46:18;;;;;;;0.87;0.63;;;;;;;15.72;31.31;101739.38;4195768;28;20233;-68
2024/01/30 09:48:47;;;;;;;0.27;0.10;;;;;;;13.05;35.95;101722.66;4194641;28;20244;-68
2024/01/30 09:51:16;;;;;;;0.70;0.47;;;;;;;12.02;38.68;101741.16;4197135;28;20238;-69
2024/01/30 09:53:46;;;;;;;2.87;0.97;;;;;;;10.66;41.17;101732.72;4187588;28;20392;-69
2024/01/30 09:56:13;;;;;;;0.00;0.00;;;;;;;10.04;43.46;101729.13;4190824;28;23441;-69
2024/01/30 09:58:40;;;;;;;0.00;0.00;;;;;;;9.47;45.00;101730.50;4193189;28;20660;-68
2024/01/30 10:01:07;;;;;;;0.83;0.30;;;;;;;9.37;45.41;101724.88;4197881;28;20300;-69
2024/01/30 10:03:34;;;;;;;0.10;0.10;;;;;;;9.23;46.13;101723.16;4190080;28;20336;-69
2024/01/30 10:06:01;;;;;;;0.00;0.00;;;;;;;9.21;46.39;101717.00;4191631;28;20229;-69
2024/01/30 10:08:29;;;;;;;2.10;1.17;;;;;;;9.12;46.63;101718.50;4198826;28;20849;-68
2024/01/30 10:10:56;;;;;;;0.57;0.33;;;;;;;9.19;46.47;101713.53;4194358;28;20434;-68
2024/01/30 10:13:25;;;;;;;0.00;0.00;;;;;;;9.31;46.03;101719.94;4187458;28;22290;-69
2024/01/30 10:15:53;;;;;;;0.10;0.10;;;;;;;9.33;46.08;101710.72;4190451;28;21390;-68
2024/01/30 10:18:20;;;;;;;0.37;0.20;;;;;;;9.32;45.94;101711.69;4190768;28;22037;-67
2024/01/30 10:20:46;;;;;;;0.00;0.00;;;;;;;9.27;46.09;101705.75;4187834;28;20321;-66
2024/01/30 10:23:13;;;;;;;0.07;0.07;;;;;;;9.45;45.74;101700.88;4203703;28;20254;-69
2024/01/30 10:25:40;;;;;;;0.27;0.27;;;;;;;9.45;46.09;101706.28;4194426;28;20580;-70
2024/01/30 10:28:07;;;;;;;8.80;1.80;;;;;;;9.25;46.72;101699.59;4174868;28;20239;-69
2024/01/30 10:30:33;;;;;;;5.53;2.17;;;;;;;9.24;46.66;101692.44;4192512;28;20292;-70
2024/01/30 10:33:00;;;;;;;0.20;0.20;;;;;;;9.39;46.35;101686.94;4202403;28;21209;-67
2024/01/30 10:35:27;;;;;;;0.00;0.00;;;;;;;9.29;46.85;101690.28;4186951;28;20663;-69
2024/01/30 10:37:58;;;;;;;0.23;0.23;;;;;;;9.60;46.32;101688.09;4181712;28;20656;-69
2024/01/30 10:40:29;;;;;;;0.67;0.67;;;;;;;9.79;45.52;101681.38;4198907;28;20238;-68
2024/01/30 10:42:56;;;;;;;3.80;1.70;;;;;;;9.57;45.89;101680.22;4187956;28;20768;-68
2024/01/30 10:45:27;;;;;;;0.77;0.57;;;;;;;9.52;46.15;101676.97;4179410;28;20712;-67
2024/01/30 10:47:58;;;;;;;0.00;0.00;;;;;;;9.96;45.30;101683.72;4206715;28;21801;-68
2024/01/30 10:50:26;;;;;;;1.00;0.77;;;;;;;9.48;45.59;101679.03;4204943;28;20236;-68
2024/01/30 10:52:54;;;;;;;2.03;1.13;;;;;;;9.63;45.42;101674.38;4185795;28;21600;-68
2024/01/30 10:55:23;;;;;;;4.00;3.70;;;;;;;9.74;45.54;101684.41;4194414;28;20369;-69
2024/01/30 10:57:50;;;;;;;2.37;1.57;;;;;;;9.75;45.06;101664.50;4194914;28;20279;-68
2024/01/30 11:00:22;;;;;;;0.93;0.30;;;;;;;9.76;45.62;101665.38;4202576;28;20240;-67
2024/01/30 11:02:49;;;;;;;0.83;0.47;;;;;;;9.41;46.29;101666.09;4188981;28;21070;-70
2024/01/30 11:05:24;;;;;;;0.90;0.30;;;;;;;9.20;46.74;101653.13;4197812;28;20237;-69
2024/01/30 11:07:54;;;;;;;0.00;0.00;;;;;;;9.36;46.67;101659.16;4189841;28;20327;-68
2024/01/30 11:10:21;;;;;;;1.20;0.93;;;;;;;9.23;46.97;101658.31;4187312;28;21010;-68
2024/01/30 11:12:50;;;;;;;0.00;0.00;;;;;;;9.09;47.50;101651.19;4188544;28;20296;-67
2024/01/30 11:15:17;;;;;;;0.00;0.00;;;;;;;9.26;46.34;101646.41;4192357;28;21109;-67
2024/01/30 11:17:47;;;;;;;1.50;0.37;;;;;;;9.31;47.08;101647.81;4210022;28;20312;-67
2024/01/30 11:20:22;;;;;;;2.97;1.03;;;;;;;9.26;47.08;101647.28;4193860;28;21743;-69
2024/01/30 11:22:52;;;;;;;0.20;0.20;;;;;;;9.31;47.05;101644.25;4206927;28;20287;-69
2024/01/30 11:25:20;;;;;;;0.10;0.10;;;;;;;9.44;47.13;101639.69;4194476;28;20235;-69
2024/01/30 11:27:50;;;;;;;0.70;0.70;;;;;;;9.42;47.24;101635.38;4205906;28;22248;-69
2024/01/30 11:30:24;;;;;;;0.27;0.27;;;;;;;9.49;46.83;101637.50;4212434;28;20877;-68